createdAt,value
2016-04-01T00:00:25.376Z,88.68
2016-04-01T00:01:25.394Z,88.01
2016-04-01T00:02:24.662Z,88.2
2016-04-01T00:03:38.167Z,88.1
2016-04-01T00:04:31.702Z,88.48
2016-04-01T00:05:44.704Z,88.48
2016-04-01T00:06:25.485Z,88.58
2016-04-01T00:07:51.178Z,88.68
2016-04-01T00:08:47.853Z,88.29
2016-04-01T00:09:47.824Z,87.73
2016-04-01T00:10:47.874Z,87.92
2016-04-01T00:11:54.127Z,87.82
2016-04-01T00:12:54.145Z,87.35
2016-04-01T00:14:00.601Z,87.45
2016-04-01T00:15:07.104Z,87.73
2016-04-01T00:16:07.106Z,87.73
2016-04-01T00:16:47.922Z,87.25
2016-04-01T00:17:47.955Z,87.16
2016-04-01T00:19:13.614Z,87.16
2016-04-01T00:19:47.977Z,86.68
2016-04-01T00:21:48.012Z,86.68
2016-04-01T00:22:48.032Z,86.3
2016-04-01T00:23:54.299Z,86.49
2016-04-01T00:24:48.037Z,86.49
2016-04-01T00:25:48.071Z,86.78
2016-04-01T00:26:48.073Z,86.68
2016-04-01T00:28:13.748Z,86.59
2016-04-01T00:28:54.375Z,86.59
2016-04-01T00:29:48.112Z,86.68
2016-04-01T00:31:03.303Z,86.49
2016-04-01T00:32:03.336Z,86.3
2016-04-01T00:33:16.074Z,86.59
2016-04-01T00:34:16.108Z,86.59
2016-04-01T00:35:03.375Z,86.68
2016-04-01T00:36:03.379Z,86.68
2016-04-01T00:37:22.631Z,86.87
2016-04-01T00:38:22.618Z,86.93
2016-04-01T00:39:03.419Z,87.21
2016-04-01T00:40:03.452Z,87.12
2016-04-01T00:41:03.455Z,86.64
2016-04-01T00:42:03.473Z,86.64
2016-04-01T00:43:22.710Z,86.83
2016-04-01T00:44:03.494Z,86.45
2016-04-01T00:45:03.527Z,86.68
2016-04-01T00:46:03.546Z,85.88
2016-04-01T00:47:03.565Z,86.74
2016-04-01T00:48:03.567Z,86.64
2016-04-01T00:49:16.304Z,86.55
2016-04-01T00:50:16.338Z,86.55
2016-04-01T00:51:03.622Z,86.64
2016-04-01T00:52:03.625Z,86.55
2016-04-01T00:53:25.752Z,86.74
2016-04-01T00:54:06.567Z,86.74
2016-04-01T00:55:06.587Z,86.45
2016-04-01T00:56:06.605Z,86.64
2016-04-01T00:57:06.607Z,86.45
2016-04-01T00:58:06.626Z,86.74
2016-04-01T00:59:06.643Z,86.45
2016-04-01T01:00:06.662Z,86.55
2016-04-01T01:01:06.696Z,86.83
2016-04-01T01:02:06.699Z,86.45
2016-04-01T01:03:06.701Z,85.88
2016-04-01T01:04:19.454Z,86.74
2016-04-01T01:05:06.739Z,86.16
2016-04-01T01:06:06.756Z,85.97
2016-04-01T01:07:06.759Z,85.78
2016-04-01T01:08:06.777Z,85.97
2016-04-01T01:09:06.780Z,85.97
2016-04-01T01:10:13.158Z,85.88
2016-04-01T01:11:06.833Z,85.88
2016-04-01T01:12:26.038Z,85.97
2016-04-01T01:13:06.853Z,86.35
2016-04-01T01:14:06.888Z,86.07
2016-04-01T01:15:06.890Z,86.07
2016-04-01T01:16:06.908Z,85.97
2016-04-01T01:17:06.911Z,86.16
2016-04-01T01:18:13.194Z,86.07
2016-04-01T01:19:06.947Z,86.26
2016-04-01T01:20:13.232Z,86.07
2016-04-01T01:21:07.077Z,85.97
2016-04-01T01:22:06.987Z,85.88
2016-04-01T01:23:13.271Z,86.07
2016-04-01T01:24:07.007Z,85.97
2016-04-01T01:25:07.042Z,86.16
2016-04-01T01:26:07.045Z,86.16
2016-04-01T01:27:06.906Z,86.16
2016-04-01T01:28:07.081Z,86.16
2016-04-01T01:29:07.084Z,86.26
2016-04-01T01:30:07.118Z,86.93
2016-04-01T01:31:07.136Z,86.55
2016-04-01T01:32:26.357Z,86.55
2016-04-01T01:33:07.157Z,86.45
2016-04-01T01:34:07.159Z,86.45
2016-04-01T01:35:07.178Z,86.83
2016-04-01T01:36:07.196Z,86.93
2016-04-01T01:37:07.214Z,86.6
2016-04-01T01:38:07.233Z,86.45
2016-04-01T01:39:07.236Z,86.31
2016-04-01T01:40:20.003Z,86.16
2016-04-01T01:41:20.006Z,85.88
2016-04-01T01:42:07.306Z,85.88
2016-04-01T01:43:26.511Z,86.74
2016-04-01T01:44:07.311Z,86.55
2016-04-01T01:45:33.005Z,86.55
2016-04-01T01:46:07.349Z,86.64
2016-04-01T01:47:07.460Z,86.83
2016-04-01T01:48:07.385Z,86.55
2016-04-01T01:49:07.403Z,86.31
2016-04-01T01:50:07.405Z,86.07
2016-04-01T01:51:13.674Z,86.16
2016-04-01T01:52:13.708Z,85.5
2016-04-01T01:53:26.648Z,85.69
2016-04-01T01:54:07.463Z,85.93
2016-04-01T01:55:07.482Z,86.12
2016-04-01T01:56:07.485Z,86.03
2016-04-01T01:57:08.940Z,86.03
2016-04-01T01:58:20.256Z,85.65
2016-04-01T01:59:07.540Z,85.65
2016-04-01T02:00:07.557Z,85.93
2016-04-01T02:01:07.560Z,85.93
2016-04-01T02:02:26.906Z,86.31
2016-04-01T02:03:20.347Z,86.5
2016-04-01T02:04:33.336Z,85.74
2016-04-01T02:05:06.977Z,86.6
2016-04-01T02:06:07.636Z,86.5
2016-04-01T02:07:07.655Z,87.07
2016-04-01T02:08:08.287Z,87.35
2016-04-01T02:09:20.414Z,87.26
2016-04-01T02:10:07.683Z,87.26
2016-04-01T02:11:07.717Z,87.16
2016-04-01T02:12:08.345Z,87.54
2016-04-01T02:13:07.582Z,87.92
2016-04-01T02:14:07.757Z,87.83
2016-04-01T02:15:07.884Z,87.83
2016-04-01T02:16:08.402Z,87.92
2016-04-01T02:17:20.530Z,87.92
2016-04-01T02:18:20.564Z,88.02
2016-04-01T02:19:07.880Z,88.64
2016-04-01T02:20:21.179Z,88.68
2016-04-01T02:21:07.868Z,89.11
2016-04-01T02:22:07.871Z,88.92
2016-04-01T02:23:07.890Z,88.92
2016-04-01T02:24:07.893Z,89.3
2016-04-01T02:25:07.926Z,89.96
2016-04-01T02:26:07.945Z,90.06
2016-04-01T02:27:07.932Z,89.96
2016-04-01T02:28:07.951Z,89.87
2016-04-01T02:29:07.969Z,90.06
2016-04-01T02:30:14.253Z,90.72
2016-04-01T02:31:08.006Z,91
2016-04-01T02:32:08.023Z,90.91
2016-04-01T02:33:33.763Z,90.81
2016-04-01T02:34:08.341Z,90.72
2016-04-01T02:35:08.063Z,91.19
2016-04-01T02:36:08.066Z,90.25
2016-04-01T02:37:14.365Z,90.34
2016-04-01T02:38:08.103Z,90.15
2016-04-01T02:39:20.839Z,90.81
2016-04-01T02:40:08.327Z,90.72
2016-04-01T02:41:27.329Z,90.96
2016-04-01T02:42:08.160Z,90.67
2016-04-01T02:43:08.162Z,91.05
2016-04-01T02:44:08.180Z,91
2016-04-01T02:45:08.308Z,91.81
2016-04-01T02:46:14.482Z,92.1
2016-04-01T02:47:14.485Z,91.15
2016-04-01T02:48:08.238Z,92
2016-04-01T02:49:08.240Z,91.53
2016-04-01T02:50:08.259Z,91.72
2016-04-01T02:51:17.809Z,91.62
2016-04-01T02:52:43.487Z,91.91
2016-04-01T02:54:17.849Z,92.19
2016-04-01T02:55:18.570Z,92.29
2016-04-01T02:56:17.885Z,92.1
2016-04-01T02:57:17.888Z,92.29
2016-04-01T02:58:30.643Z,92.38
2016-04-01T02:59:30.646Z,92.38
2016-04-01T03:00:17.943Z,92.1
2016-04-01T03:01:17.961Z,92.1
2016-04-01T03:02:17.964Z,92.47
2016-04-01T03:03:17.967Z,92.19
2016-04-01T03:04:30.753Z,92.47
2016-04-01T03:05:24.253Z,92.38
2016-04-01T03:06:18.021Z,92.47
2016-04-01T03:07:18.025Z,92.66
2016-04-01T03:08:18.636Z,92.57
2016-04-01T03:09:18.654Z,93.23
2016-04-01T03:10:18.064Z,93.04
2016-04-01T03:11:43.756Z,93.28
2016-04-01T03:12:18.100Z,93.75
2016-04-01T03:13:18.103Z,93.56
2016-04-01T03:14:27.699Z,94.51
2016-04-01T03:15:27.655Z,94.04
2016-04-01T03:16:27.688Z,94.13
2016-04-01T03:17:27.691Z,93.56
2016-04-01T03:18:40.462Z,93.56
2016-04-01T03:19:27.712Z,93.66
2016-04-01T03:20:27.730Z,94.04
2016-04-01T03:21:34.018Z,93.66
2016-04-01T03:22:27.752Z,93.37
2016-04-01T03:23:27.770Z,93.28
2016-04-01T03:24:40.526Z,92.99
2016-04-01T03:25:27.776Z,93.47
2016-04-01T03:26:40.546Z,93.13
2016-04-01T03:27:27.812Z,92.8
2016-04-01T03:28:27.831Z,92.9
2016-04-01T03:29:27.834Z,92.43
2016-04-01T03:30:27.867Z,92.8
2016-04-01T03:31:29.292Z,92.52
2016-04-01T03:32:28.482Z,92.9
2016-04-01T03:33:28.048Z,93.09
2016-04-01T03:34:28.517Z,92.71
2016-04-01T03:35:40.773Z,92.9
2016-04-01T03:36:40.683Z,93.56
2016-04-01T03:37:53.639Z,93.09
2016-04-01T03:38:27.967Z,92.99
2016-04-01T03:39:27.969Z,93.28
2016-04-01T03:40:27.988Z,93.28
2016-04-01T03:41:40.727Z,93.66
2016-04-01T03:42:28.008Z,94.13
2016-04-01T03:43:47.280Z,93.37
2016-04-01T03:44:28.030Z,93.37
2016-04-01T03:45:28.048Z,92.9
2016-04-01T03:46:37.600Z,93.37
2016-04-01T03:47:37.588Z,92.99
2016-04-01T03:48:37.605Z,93.28
2016-04-01T03:49:37.624Z,94.04
2016-04-01T03:50:37.627Z,93.66
2016-04-01T03:51:37.645Z,93.85
2016-04-01T03:52:43.944Z,93.47
2016-04-01T03:53:37.682Z,94.04
2016-04-01T03:54:37.685Z,93.94
2016-04-01T03:55:44.015Z,94.23
2016-04-01T03:56:43.986Z,93.85
2016-04-01T03:57:37.723Z,93.75
2016-04-01T03:58:56.804Z,93.18
2016-04-01T04:00:12.025Z,93.18
2016-04-01T04:00:59.950Z,93.28
2016-04-01T04:02:15.187Z,93.85
2016-04-01T04:02:43.831Z,93.66
2016-04-01T04:03:43.881Z,94.51
2016-04-01T04:04:53.523Z,94.23
2016-04-01T04:05:53.558Z,94.13
2016-04-01T04:07:08.795Z,94.42
2016-04-01T04:08:34.487Z,94.13
2016-04-01T04:09:18.425Z,94.7
2016-04-01T04:10:37.633Z,94.42
2016-04-01T04:11:18.696Z,95.07
2016-04-01T04:12:37.858Z,94.7
2016-04-01T04:13:24.748Z,94.79
2016-04-01T04:14:41.035Z,95.26
2016-04-01T04:15:28.035Z,95.55
2016-04-01T04:16:23.178Z,95.74
2016-04-01T04:17:34.511Z,95.45
2016-04-01T04:18:21.793Z,95.55
2016-04-01T04:19:41.002Z,95.45
2016-04-01T04:20:21.814Z,95.88
2016-04-01T04:21:21.816Z,95.88
2016-04-01T04:22:34.572Z,95.45
2016-04-01T04:23:53.169Z,95.4
2016-04-01T04:24:47.546Z,95.55
2016-04-01T04:25:21.874Z,96.12
2016-04-01T04:27:28.177Z,95.88
2016-04-01T04:28:21.899Z,96.31
2016-04-01T04:29:21.916Z,96.45
2016-04-01T04:30:28.201Z,96.45
2016-04-01T04:31:23.360Z,96.07
2016-04-01T04:32:34.709Z,96.45
2016-04-01T04:33:41.195Z,96.16
2016-04-01T04:34:50.776Z,96.16
2016-04-01T04:35:50.779Z,96.54
2016-04-01T04:37:03.531Z,96.26
2016-04-01T04:37:50.800Z,96.35
2016-04-01T04:39:10.006Z,96.73
2016-04-01T04:39:50.820Z,97.11
2016-04-01T04:41:11.448Z,97.67
2016-04-01T04:42:08.045Z,97.58
2016-04-01T04:43:14.533Z,97.01
2016-04-01T04:43:55.348Z,98.14
2016-04-01T04:44:55.459Z,98.24
2016-04-01T04:45:55.353Z,98.05
2016-04-01T04:46:55.371Z,98.14
2016-04-01T04:47:55.389Z,97.86
2016-04-01T04:48:55.408Z,98.24
2016-04-01T04:49:55.426Z,98.14
2016-04-01T04:50:55.444Z,98.33
2016-04-01T04:52:08.166Z,98.33
2016-04-01T04:53:08.168Z,98.24
2016-04-01T04:54:14.671Z,97.96
2016-04-01T04:55:21.158Z,97.58
2016-04-01T04:57:36.354Z,97.2
2016-04-01T04:58:36.371Z,97.67
2016-04-01T04:59:36.391Z,97.3
2016-04-01T05:00:36.393Z,97.67
2016-04-01T05:01:36.395Z,97.3
2016-04-01T05:03:02.087Z,97.49
2016-04-01T05:03:45.964Z,98.24
2016-04-01T05:05:11.654Z,98.14
2016-04-01T05:05:55.640Z,98.14
2016-04-01T05:06:55.643Z,97.77
2016-04-01T05:07:55.661Z,97.2
2016-04-01T05:08:55.680Z,97.11
2016-04-01T05:10:08.417Z,97.2
2016-04-01T05:11:08.436Z,96.73
2016-04-01T05:11:55.688Z,96.64
2016-04-01T05:14:30.944Z,96.45
2016-04-01T05:15:05.274Z,96.64
2016-04-01T05:16:30.981Z,96.26
2016-04-01T05:17:14.889Z,96.73
2016-04-01T05:18:14.891Z,96.45
2016-04-01T05:19:21.175Z,96.45
2016-04-01T05:20:21.194Z,96.07
2016-04-01T05:21:35.200Z,96.07
2016-04-01T05:22:14.950Z,96.16
2016-04-01T05:23:14.952Z,95.69
2016-04-01T05:24:14.971Z,95.69
2016-04-01T05:26:55.838Z,94.93
2016-04-01T05:27:30.166Z,94.93
2016-04-01T05:28:30.199Z,94.84
2016-04-01T05:29:30.187Z,94.56
2016-04-01T05:30:30.096Z,95.21
2016-04-01T05:31:30.833Z,94.46
2016-04-01T05:32:30.226Z,94.56
2016-04-01T05:33:30.276Z,94.65
2016-04-01T05:34:30.248Z,94.18
2016-04-01T05:35:30.265Z,93.7
2016-04-01T05:36:30.300Z,93.8
2016-04-01T05:37:30.896Z,93.51
2016-04-01T05:38:30.306Z,93.85
2016-04-01T05:39:30.934Z,93.75
2016-04-01T05:40:30.342Z,93.66
2016-04-01T05:41:30.391Z,93.66
2016-04-01T05:42:30.332Z,93.13
2016-04-01T05:43:30.412Z,93.18
2016-04-01T05:44:43.120Z,93.75
2016-04-01T05:45:30.386Z,94.18
2016-04-01T05:46:30.389Z,94.51
2016-04-01T05:47:30.408Z,94.46
2016-04-01T05:48:30.458Z,95.03
2016-04-01T05:49:43.180Z,95.07
2016-04-01T05:50:56.121Z,95.17
2016-04-01T05:51:40.030Z,95.07
2016-04-01T05:52:40.033Z,94.84
2016-04-01T05:54:40.054Z,95.74
2016-04-01T05:55:40.057Z,95.45
2016-04-01T05:56:40.075Z,95.74
2016-04-01T05:57:40.093Z,93.37
2016-04-01T05:58:40.096Z,88.4
2016-04-01T05:59:40.099Z,81.67
2016-04-01T06:00:40.210Z,73.97
2016-04-01T06:01:40.121Z,68.39
2016-04-01T06:02:40.200Z,63.23
2016-04-01T06:03:40.203Z,58.59
2016-04-01T06:04:40.174Z,54.85
2016-04-01T06:05:40.192Z,51.37
2016-04-01T06:06:40.227Z,48.16
2016-04-01T06:07:40.214Z,46.08
2016-04-01T06:08:40.236Z,44.01
2016-04-01T06:09:40.255Z,42.21
2016-04-01T06:10:40.289Z,40.61
2016-04-01T06:11:40.291Z,39.29
2016-04-01T06:12:40.325Z,38.07
2016-04-01T06:13:40.188Z,37.02
2016-04-01T06:14:40.347Z,35.41
2016-04-01T06:15:40.365Z,34.66
2016-04-01T06:16:40.383Z,34.28
2016-04-01T06:17:39.651Z,32.95
2016-04-01T06:18:40.451Z,32.29
2016-04-01T06:19:40.438Z,32.01
2016-04-01T06:20:40.456Z,30.67
2016-04-01T06:21:40.489Z,30.01
2016-04-01T06:22:40.476Z,29.26
2016-04-01T06:23:40.512Z,28.68
2016-04-01T06:24:40.545Z,28.39
2016-04-01T06:25:40.734Z,28.3
2016-04-01T06:26:40.581Z,28.31
2016-04-01T06:27:40.615Z,27.93
2016-04-01T06:28:40.712Z,27.36
2016-04-01T06:29:53.370Z,27.08
2016-04-01T06:30:40.655Z,27.17
2016-04-01T06:31:40.673Z,25.54
2016-04-01T06:32:40.739Z,24.58
2016-04-01T06:33:40.742Z,25.15
2016-04-01T06:34:40.744Z,25.82
2016-04-01T06:35:40.762Z,26.19
2016-04-01T06:36:43.843Z,26.19
2016-04-01T06:38:09.564Z,25.53
2016-04-01T06:39:19.661Z,24.5
2016-04-01T06:39:54.101Z,23.55
2016-04-01T06:40:54.135Z,23.26
2016-04-01T06:41:54.153Z,23.91
2016-04-01T06:42:54.155Z,23.62
2016-04-01T06:43:54.205Z,23.44
2016-04-01T06:44:54.208Z,23.06
2016-04-01T06:45:54.257Z,22.58
2016-04-01T06:46:54.276Z,22.39
2016-04-01T06:47:54.357Z,22.02
2016-04-01T06:48:54.313Z,22.22
2016-04-01T06:49:54.394Z,21.54
2016-04-01T06:50:54.365Z,21.17
2016-04-01T06:51:54.493Z,20.4
2016-04-01T06:52:54.402Z,20.31
2016-04-01T06:53:54.435Z,19.84
2016-04-01T06:54:54.454Z,20.13
2016-04-01T06:55:54.473Z,19.37
2016-04-01T06:56:54.521Z,18.5
2016-04-01T06:58:07.290Z,17.92
2016-04-01T06:58:54.558Z,18.98
2016-04-01T06:59:54.592Z,18.79
2016-04-01T07:00:54.642Z,18.3
2016-04-01T07:01:54.614Z,19.45
2016-04-01T07:02:54.662Z,19.25
2016-04-01T07:03:54.681Z,21.75
2016-04-01T07:05:07.465Z,23.14
2016-04-01T07:05:54.750Z,23.22
2016-04-01T07:07:13.970Z,24.09
2016-04-01T07:07:54.785Z,24.37
2016-04-01T07:08:54.819Z,25.21
2016-04-01T07:09:54.838Z,25.68
2016-04-01T07:10:54.872Z,26.18
2016-04-01T07:11:54.906Z,27.41
2016-04-01T07:12:54.924Z,27.68
2016-04-01T07:13:55.177Z,27.59
2016-04-01T07:14:54.991Z,26.72
2016-04-01T07:15:55.104Z,28.72
2016-04-01T07:16:55.044Z,30.99
2016-04-01T07:17:55.078Z,31.72
2016-04-01T07:18:55.066Z,32.01
2016-04-01T07:19:55.100Z,32.68
2016-04-01T07:20:55.133Z,32.76
2016-04-01T07:21:55.182Z,32.49
2016-04-01T07:22:55.295Z,33.25
2016-04-01T07:23:55.205Z,32.58
2016-04-01T07:24:55.346Z,32.78
2016-04-01T07:26:08.006Z,33.25
2016-04-01T07:26:55.274Z,34.65
2016-04-01T07:27:55.309Z,34.84
2016-04-01T07:28:55.326Z,34.75
2016-04-01T07:29:55.361Z,36.16
2016-04-01T07:30:55.395Z,36.44
2016-04-01T07:31:55.412Z,34.27
2016-04-01T07:32:55.432Z,34.38
2016-04-01T07:34:08.246Z,34.84
2016-04-01T07:34:55.484Z,34.55
2016-04-01T07:35:55.502Z,34.75
2016-04-01T07:36:55.537Z,35.3
2016-04-01T07:37:55.554Z,35.51
2016-04-01T07:38:55.604Z,34.65
2016-04-01T07:39:55.638Z,33.62
2016-04-01T07:40:55.609Z,33.91
2016-04-01T07:41:55.659Z,33.52
2016-04-01T07:42:55.693Z,35.11
2016-04-01T07:43:56.323Z,36.54
2016-04-01T07:44:55.684Z,37.19
2016-04-01T07:45:55.703Z,38.62
2016-04-01T07:46:55.706Z,39.19
2016-04-01T07:47:55.724Z,42.41
2016-04-01T07:48:55.846Z,45.42
2016-04-01T07:49:55.752Z,49.27
2016-04-01T07:50:55.781Z,51.06
2016-04-01T07:52:08.510Z,53.31
2016-04-01T07:52:55.822Z,54.61
2016-04-01T07:53:55.820Z,55.47
2016-04-01T07:55:02.102Z,56.04
2016-04-01T07:55:55.852Z,58
2016-04-01T07:56:55.884Z,58.29
2016-04-01T07:57:55.885Z,58.86
2016-04-01T07:58:55.917Z,58.67
2016-04-01T07:59:56.044Z,58.1
2016-04-01T08:00:55.984Z,58.1
2016-04-01T08:02:02.253Z,58.39
2016-04-01T08:02:55.988Z,59.14
2016-04-01T08:03:55.990Z,59.05
2016-04-01T08:04:56.101Z,59.24
2016-04-01T08:05:56.025Z,58.39
2016-04-01T08:06:56.043Z,58.29
2016-04-01T08:07:56.061Z,57.34
2016-04-01T08:08:56.110Z,58.39
2016-04-01T08:09:56.113Z,58.2
2016-04-01T08:10:56.146Z,57.81
2016-04-01T08:11:56.165Z,57.72
2016-04-01T08:12:56.262Z,58
2016-04-01T08:13:56.202Z,58.86
2016-04-01T08:14:56.204Z,56.93
2016-04-01T08:16:08.976Z,56.77
2016-04-01T08:16:56.241Z,57.24
2016-04-01T08:17:56.275Z,58.48
2016-04-01T08:18:56.262Z,59.52
2016-04-01T08:19:56.281Z,60.66
2016-04-01T08:20:56.314Z,60.53
2016-04-01T08:21:56.333Z,59.68
2016-04-01T08:22:56.335Z,59.4
2016-04-01T08:23:56.338Z,60.28
2016-04-01T08:24:56.372Z,59.91
2016-04-01T08:25:56.437Z,60.66
2016-04-01T08:26:56.408Z,58.58
2016-04-01T08:27:56.441Z,57.81
2016-04-01T08:28:56.429Z,55.25
2016-04-01T08:29:56.464Z,55.73
2016-04-01T08:30:56.482Z,56.58
2016-04-01T08:31:56.485Z,57.24
2016-04-01T08:32:56.503Z,56.77
2016-04-01T08:33:56.536Z,56.96
2016-04-01T08:34:57.164Z,55.16
2016-04-01T08:35:56.558Z,54.87
2016-04-01T08:36:56.576Z,53.73
2016-04-01T08:37:56.594Z,53.83
2016-04-01T08:38:56.613Z,53.83
2016-04-01T08:39:56.631Z,53.83
2016-04-01T08:41:09.402Z,55.82
2016-04-01T08:41:56.668Z,55.91
2016-04-01T08:43:15.892Z,56.49
2016-04-01T08:43:59.782Z,55.63
2016-04-01T08:44:59.801Z,56.58
2016-04-01T08:45:59.804Z,55.73
2016-04-01T08:47:00.415Z,55.57
2016-04-01T08:47:59.856Z,54.9
2016-04-01T08:48:59.859Z,53.95
2016-04-01T08:49:59.876Z,54.05
2016-04-01T08:50:59.895Z,53.95
2016-04-01T08:52:12.651Z,54.02
2016-04-01T08:52:59.932Z,52.91
2016-04-01T08:54:25.625Z,53.85
2016-04-01T08:54:59.968Z,53.76
2016-04-01T08:55:59.971Z,52.78
2016-04-01T08:57:00.005Z,53
2016-04-01T08:58:00.008Z,53.09
2016-04-01T08:59:12.763Z,52.33
2016-04-01T09:00:12.797Z,51.95
2016-04-01T09:01:00.078Z,52.24
2016-04-01T09:02:00.096Z,53.38
2016-04-01T09:03:00.146Z,53.85
2016-04-01T09:04:00.117Z,53.19
2016-04-01T09:05:00.135Z,52.33
2016-04-01T09:06:00.154Z,52.62
2016-04-01T09:07:00.172Z,53
2016-04-01T09:08:00.191Z,51.01
2016-04-01T09:09:00.209Z,51.2
2016-04-01T09:10:00.227Z,52.24
2016-04-01T09:11:00.246Z,53.09
2016-04-01T09:12:00.248Z,52.05
2016-04-01T09:13:00.266Z,52.72
2016-04-01T09:14:00.285Z,53.28
2016-04-01T09:15:00.303Z,52.72
2016-04-01T09:16:00.321Z,53
2016-04-01T09:17:00.340Z,53.85
2016-04-01T09:18:00.374Z,54.33
2016-04-01T09:19:00.361Z,54.9
2016-04-01T09:20:00.395Z,54.71
2016-04-01T09:21:00.413Z,53.28
2016-04-01T09:22:00.415Z,53.19
2016-04-01T09:23:00.434Z,53.57
2016-04-01T09:24:00.467Z,53.95
2016-04-01T09:25:00.486Z,54.71
2016-04-01T09:26:00.489Z,53.78
2016-04-01T09:27:00.522Z,52.64
2016-04-01T09:28:00.588Z,53.28
2016-04-01T09:29:00.559Z,53
2016-04-01T09:30:00.624Z,53.28
2016-04-01T09:31:00.580Z,54.14
2016-04-01T09:32:00.614Z,54.64
2016-04-01T09:33:00.852Z,54.64
2016-04-01T09:34:00.636Z,55.11
2016-04-01T09:35:00.655Z,53.88
2016-04-01T09:36:00.922Z,53.31
2016-04-01T09:37:00.691Z,52.36
2016-04-01T09:38:00.866Z,53.22
2016-04-01T09:39:00.711Z,53.31
2016-04-01T09:40:00.730Z,52.64
2016-04-01T09:41:00.795Z,52.17
2016-04-01T09:42:01.313Z,53.12
2016-04-01T09:43:00.785Z,51.79
2016-04-01T09:44:00.788Z,50.93
2016-04-01T09:45:00.915Z,51.89
2016-04-01T09:46:01.168Z,52.45
2016-04-01T09:47:00.858Z,53.22
2016-04-01T09:48:01.440Z,54.74
2016-04-01T09:49:00.911Z,54
2016-04-01T09:50:01.335Z,54.07
2016-04-01T09:51:00.916Z,53.78
2016-04-01T09:52:00.934Z,54.07
2016-04-01T09:53:01.578Z,51.12
2016-04-01T09:54:01.189Z,51.31
2016-04-01T09:55:01.333Z,51.31
2016-04-01T09:56:01.398Z,51.06
2016-04-01T09:57:01.510Z,50.2
2016-04-01T09:58:01.356Z,50.87
2016-04-01T09:59:01.312Z,50.2
2016-04-01T10:00:01.628Z,48.11
2016-04-01T10:01:01.224Z,50.96
2016-04-01T10:02:13.838Z,51.25
2016-04-01T10:03:01.572Z,50.29
2016-04-01T10:04:01.200Z,48.71
2016-04-01T10:05:01.422Z,46.7
2016-04-01T10:06:01.549Z,48.3
2016-04-01T10:07:01.396Z,47.82
2016-04-01T10:08:01.571Z,47.25
2016-04-01T10:09:01.402Z,47.44
2016-04-01T10:10:01.452Z,48.49
2016-04-01T10:11:01.486Z,49.46
2016-04-01T10:12:01.691Z,48.23
2016-04-01T10:13:01.413Z,49.37
2016-04-01T10:14:01.680Z,48.42
2016-04-01T10:15:01.496Z,50.32
2016-04-01T10:16:01.748Z,46.8
2016-04-01T10:17:01.642Z,45.56
2016-04-01T10:18:01.598Z,45.85
2016-04-01T10:19:01.413Z,45.56
2016-04-01T10:20:01.541Z,44.42
2016-04-01T10:21:01.543Z,43.66
2016-04-01T10:22:01.468Z,44.52
2016-04-01T10:23:01.486Z,44.8
2016-04-01T10:24:01.489Z,45.83
2016-04-01T10:25:01.804Z,45.16
2016-04-01T10:26:01.525Z,43.76
2016-04-01T10:27:14.296Z,44.21
2016-04-01T10:28:07.842Z,43.57
2016-04-01T10:29:01.706Z,44.9
2016-04-01T10:30:01.614Z,43.85
2016-04-01T10:31:01.789Z,44.12
2016-04-01T10:32:01.666Z,43.47
2016-04-01T10:33:01.763Z,43.85
2016-04-01T10:34:01.688Z,44.61
2016-04-01T10:35:03.128Z,44.71
2016-04-01T10:36:01.772Z,44.23
2016-04-01T10:37:01.728Z,44.61
2016-04-01T10:38:01.745Z,44.9
2016-04-01T10:39:01.780Z,45.45
2016-04-01T10:40:01.813Z,45.47
2016-04-01T10:41:01.816Z,44.52
2016-04-01T10:42:01.834Z,41.57
2016-04-01T10:43:01.852Z,41.38
2016-04-01T10:44:01.886Z,41.28
2016-04-01T10:45:01.889Z,42.04
2016-04-01T10:46:03.299Z,43.09
2016-04-01T10:47:01.988Z,44.71
2016-04-01T10:48:01.944Z,43.38
2016-04-01T10:49:14.684Z,40.14
2016-04-01T10:50:01.965Z,41.28
2016-04-01T10:51:14.720Z,42.44
2016-04-01T10:52:02.001Z,43.68
2016-04-01T10:53:02.020Z,42.35
2016-04-01T10:54:14.776Z,41.49
2016-04-01T10:55:02.057Z,42.92
2016-04-01T10:56:02.075Z,43.78
2016-04-01T10:57:14.845Z,44.45
2016-04-01T10:58:02.236Z,41.88
2016-04-01T10:59:21.711Z,38.54
2016-04-01T11:00:14.964Z,38.92
2016-04-01T11:01:02.167Z,37.69
2016-04-01T11:02:02.200Z,37.12
2016-04-01T11:03:02.219Z,35.97
2016-04-01T11:04:02.237Z,35.31
2016-04-01T11:05:02.255Z,33.78
2016-04-01T11:06:02.274Z,33.03
2016-04-01T11:07:02.276Z,32.35
2016-04-01T11:08:02.303Z,32.17
2016-04-01T11:09:02.306Z,31.88
2016-04-01T11:10:02.340Z,30.65
2016-04-01T11:11:02.359Z,32.07
2016-04-01T11:12:02.377Z,33.22
2016-04-01T11:13:02.395Z,33.12
2016-04-01T11:14:15.135Z,32.55
2016-04-01T11:15:02.431Z,32.45
2016-04-01T11:16:22.000Z,34.64
2016-04-01T11:17:12.156Z,36.45
2016-04-01T11:18:15.255Z,35.6
2016-04-01T11:19:40.961Z,35.21
2016-04-01T11:20:15.744Z,35.78
2016-04-01T11:21:15.310Z,37.12
2016-04-01T11:22:15.327Z,37.49
2016-04-01T11:23:15.330Z,37.71
2016-04-01T11:24:15.365Z,37.9
2016-04-01T11:25:15.383Z,39.23
2016-04-01T11:26:15.386Z,40.56
2016-04-01T11:27:15.420Z,40.28
2016-04-01T11:28:15.438Z,38.18
2016-04-01T11:29:15.440Z,40.09
2016-04-01T11:30:15.678Z,40.48
2016-04-01T11:31:15.492Z,38.87
2016-04-01T11:32:15.511Z,38.2
2016-04-01T11:33:15.529Z,40.2
2016-04-01T11:34:28.314Z,35.44
2016-04-01T11:35:15.707Z,34.58
2016-04-01T11:36:15.584Z,34.94
2016-04-01T11:37:28.337Z,36.47
2016-04-01T11:38:28.355Z,35.89
2016-04-01T11:39:15.780Z,36.08
2016-04-01T11:40:15.642Z,31.52
2016-04-01T11:41:15.692Z,32.18
2016-04-01T11:42:15.711Z,34.09
2016-04-01T11:43:15.713Z,36.28
2016-04-01T11:44:15.747Z,38.66
2016-04-01T11:45:15.750Z,38.2
2016-04-01T11:46:15.767Z,37.92
2016-04-01T11:47:15.786Z,38.01
2016-04-01T11:48:18.835Z,38.1
2016-04-01T11:49:15.839Z,36.3
2016-04-01T11:50:35.044Z,36.77
2016-04-01T11:51:15.875Z,37.34
2016-04-01T11:52:15.925Z,37.15
2016-04-01T11:53:15.927Z,39.53
2016-04-01T11:54:15.914Z,39.53
2016-04-01T11:55:15.948Z,38.68
2016-04-01T11:56:15.966Z,36.39
2016-04-01T11:57:15.984Z,35.35
2016-04-01T11:58:15.987Z,33.34
2016-04-01T11:59:28.756Z,33.15
2016-04-01T12:00:16.024Z,32.87
2016-04-01T12:01:16.043Z,35.15
2016-04-01T12:02:16.060Z,36.69
2016-04-01T12:03:16.157Z,37.17
2016-04-01T12:04:16.128Z,33.26
2016-04-01T12:05:16.240Z,34.3
2016-04-01T12:06:16.134Z,32.77
2016-04-01T12:07:16.778Z,29.53
2016-04-01T12:08:16.249Z,31.92
2016-04-01T12:09:16.204Z,34.58
2016-04-01T12:10:16.223Z,36.49
2016-04-01T12:11:16.241Z,37.06
2016-04-01T12:12:16.259Z,37.15
2016-04-01T12:13:16.293Z,35.35
2016-04-01T12:14:16.311Z,34.41
2016-04-01T12:15:16.330Z,35.17
2016-04-01T12:16:16.427Z,35.91
2016-04-01T12:17:16.367Z,34.39
2016-04-01T12:18:17.292Z,34.48
2016-04-01T12:19:16.403Z,33.64
2016-04-01T12:20:16.453Z,34.03
2016-04-01T12:21:17.018Z,33.64
2016-04-01T12:22:16.458Z,34.69
2016-04-01T12:23:16.460Z,35.93
2016-04-01T12:24:16.479Z,33.84
2016-04-01T12:25:16.529Z,30.5
2016-04-01T12:26:16.531Z,30.31
2016-04-01T12:27:29.300Z,29.63
2016-04-01T12:28:16.568Z,29.34
2016-04-01T12:29:16.602Z,28.58
2016-04-01T12:30:16.604Z,29.72
2016-04-01T12:31:16.623Z,31.24
2016-04-01T12:32:16.673Z,32.01
2016-04-01T12:33:29.426Z,31.53
2016-04-01T12:34:16.694Z,32.03
2016-04-01T12:35:42.384Z,31.64
2016-04-01T12:36:16.731Z,31.55
2016-04-01T12:37:54.326Z,32.88
2016-04-01T12:38:16.767Z,34.03
2016-04-01T12:39:16.785Z,34.31
2016-04-01T12:40:29.537Z,33.26
2016-04-01T12:41:23.119Z,33.36
2016-04-01T12:42:16.855Z,33.45
2016-04-01T12:43:16.859Z,35.08
2016-04-01T12:44:16.970Z,33.93
2016-04-01T12:45:23.176Z,32.4
2016-04-01T12:46:16.913Z,32.31
2016-04-01T12:47:16.931Z,31.84
2016-04-01T12:48:16.966Z,30.52
2016-04-01T12:49:23.249Z,24.21
2016-04-01T12:50:17.002Z,25.45
2016-04-01T12:51:17.035Z,26.59
2016-04-01T12:52:17.554Z,26.68
2016-04-01T12:53:17.072Z,25.07
2016-04-01T12:54:17.075Z,25.35
2016-04-01T12:55:17.110Z,25.54
2016-04-01T12:56:17.128Z,25.73
2016-04-01T12:57:17.162Z,26.88
2016-04-01T12:58:17.165Z,28.69
2016-04-01T12:59:17.182Z,30.88
2016-04-01T13:00:17.202Z,30.4
2016-04-01T13:01:17.204Z,28.02
2016-04-01T13:02:17.238Z,26.88
2016-04-01T13:03:17.257Z,26.97
2016-04-01T13:04:17.274Z,26.59
2016-04-01T13:05:23.543Z,27.45
2016-04-01T13:06:17.326Z,28.5
2016-04-01T13:07:36.532Z,27.83